Time;durP1;ratioP1;P1;durP2;ratioP2;P2;SDS_P1;SDS_P2;PMS_P1;PMS_P2;Temp;Humidity;BMP_temperature;BMP_pressure;BME280_temperature;BME280_humidity;BME280_pressure;Samples;Min_cycle;Max_cycle;Signal;HPM_P1;HPM_P2
2023/08/19 00:01:45;;;;;;;;;15.00;15.00;;;;;26.77;70.23;100015.00;5038352;28;45583;-73
2023/08/19 00:04:11;;;;;;;;;20.33;20.00;;;;;26.76;70.55;100025.81;5038198;28;45597;-73
2023/08/19 00:06:39;;;;;;;;;20.67;20.33;;;;;26.68;71.45;100011.84;5037859;28;45608;-73
2023/08/19 00:09:08;;;;;;;;;21.33;20.33;;;;;26.73;71.10;100013.38;5037501;28;45454;-74
2023/08/19 00:11:35;;;;;;;;;22.33;21.33;;;;;26.80;71.62;100022.03;5037997;28;45715;-73
2023/08/19 00:14:05;;;;;;;;;24.33;20.67;;;;;26.74;71.32;100025.88;5037862;28;45480;-75
2023/08/19 00:16:32;;;;;;;;;23.00;22.00;;;;;26.83;71.21;100039.78;5037888;28;45383;-73
2023/08/19 00:18:57;;;;;;;;;18.33;18.33;;;;;26.87;70.87;100036.88;5037766;28;45505;-73
2023/08/19 00:21:23;;;;;;;;;19.00;18.00;;;;;26.90;70.89;100030.50;5038538;28;45397;-73
2023/08/19 00:23:50;;;;;;;;;20.33;20.00;;;;;26.89;71.10;100039.50;5051363;28;45617;-73
2023/08/19 00:26:16;;;;;;;;;20.67;19.67;;;;;26.94;70.59;100040.19;5037519;28;45716;-74
2023/08/19 00:28:41;;;;;;;;;22.33;21.67;;;;;26.86;71.06;100036.94;5037427;28;45541;-73
2023/08/19 00:31:07;;;;;;;;;17.33;15.33;;;;;26.89;71.12;100048.41;5038404;28;45356;-73
2023/08/19 00:33:34;;;;;;;;;20.00;19.33;;;;;26.84;70.79;100037.03;5037631;28;45439;-74
2023/08/19 00:36:00;;;;;;;;;20.33;18.67;;;;;26.97;70.41;100056.09;5037694;28;46072;-73
2023/08/19 00:38:26;;;;;;;;;18.67;18.67;;;;;27.01;70.59;100057.69;5037680;28;45525;-73
2023/08/19 00:40:51;;;;;;;;;18.00;17.67;;;;;27.06;70.06;100061.06;5036372;28;45478;-74
2023/08/19 00:43:17;;;;;;;;;19.33;18.33;;;;;27.06;70.29;100069.09;5037483;28;45486;-73
2023/08/19 00:45:46;;;;;;;;;19.00;17.33;;;;;27.00;70.21;100064.00;5037558;28;46006;-74
2023/08/19 00:48:16;;;;;;;;;21.67;19.67;;;;;26.95;69.93;100069.56;5030657;28;45529;-73
2023/08/19 00:50:42;;;;;;;;;18.33;17.33;;;;;26.97;69.13;100075.72;5031759;28;45348;-73
2023/08/19 00:53:09;;;;;;;;;21.67;18.67;;;;;26.92;68.75;100079.56;5035877;28;45317;-73
2023/08/19 00:55:35;;;;;;;;;19.33;18.00;;;;;26.87;68.96;100092.31;5037170;28;45674;-74
2023/08/19 00:58:05;;;;;;;;;18.00;16.33;;;;;26.87;68.90;100097.66;5038060;28;45515;-74
2023/08/19 01:00:32;;;;;;;;;18.00;17.00;;;;;26.88;68.43;100102.06;5037622;28;45414;-73
2023/08/19 01:02:58;;;;;;;;;15.67;15.67;;;;;26.85;68.50;100099.53;5038182;28;45381;-74
2023/08/19 01:05:35;;;;;;;;;16.67;16.00;;;;;26.83;68.28;100099.59;5034405;28;46373;-74
2023/08/19 01:08:04;;;;;;;;;15.00;15.00;;;;;26.75;68.02;100089.22;5037091;28;45354;-73
2023/08/19 01:10:40;;;;;;;;;17.33;16.33;;;;;26.72;68.08;100093.84;5037315;28;45623;-73
2023/08/19 01:13:15;;;;;;;;;15.33;14.67;;;;;26.56;68.64;100101.66;5033864;28;45567;-73
2023/08/19 01:15:55;;;;;;;;;15.67;14.33;;;;;26.50;69.03;100105.47;5035950;28;46026;-73
2023/08/19 01:18:23;;;;;;;;;14.67;14.33;;;;;26.38;69.03;100096.16;5034165;28;45462;-73
2023/08/19 01:20:50;;;;;;;;;15.67;15.33;;;;;26.42;69.11;100114.75;5036873;28;45546;-74
2023/08/19 01:23:23;;;;;;;;;18.33;16.33;;;;;26.33;69.71;100119.56;5035499;28;45336;-74
2023/08/19 01:25:49;;;;;;;;;18.00;18.00;;;;;26.34;69.84;100129.38;5036573;28;45594;-73
2023/08/19 01:28:19;;;;;;;;;20.33;19.67;;;;;26.25;70.25;100119.03;5034949;28;45476;-73
2023/08/19 01:30:45;;;;;;;;;16.67;15.67;;;;;26.23;70.08;100117.38;5037234;28;45415;-74
2023/08/19 01:33:10;;;;;;;;;18.33;16.00;;;;;26.29;70.12;100122.47;5036937;28;45470;-74
2023/08/19 01:35:44;;;;;;;;;15.33;15.00;;;;;26.29;70.04;100123.31;5030937;28;46767;-72
2023/08/19 01:38:16;;;;;;;;;17.00;17.00;;;;;26.32;69.86;100128.56;5036377;28;45764;-73
2023/08/19 01:40:42;;;;;;;;;19.33;18.33;;;;;26.38;69.26;100147.03;5036983;28;45760;-74
2023/08/19 01:43:11;;;;;;;;;17.33;17.00;;;;;26.34;69.42;100140.06;5036578;28;45498;-73
2023/08/19 01:45:38;;;;;;;;;19.33;18.33;;;;;26.34;69.65;100152.56;5036385;28;45347;-73
2023/08/19 01:48:04;;;;;;;;;17.00;16.67;;;;;26.27;69.97;100151.09;5033499;28;45364;-73
2023/08/19 01:50:30;;;;;;;;;18.00;16.67;;;;;26.29;69.80;100158.13;5036695;28;45177;-73
2023/08/19 01:52:56;;;;;;;;;18.67;16.67;;;;;26.19;69.27;100151.41;5036490;28;45531;-73
2023/08/19 01:55:22;;;;;;;;;15.33;15.33;;;;;26.19;69.44;100159.44;5035820;28;46003;-74
2023/08/19 01:57:48;;;;;;;;;18.00;16.33;;;;;26.22;69.97;100180.72;5032267;28;45496;-73
2023/08/19 02:00:13;;;;;;;;;15.33;15.33;;;;;26.12;70.29;100190.06;5036407;28;45343;-73
2023/08/19 02:02:39;;;;;;;;;19.67;19.00;;;;;26.04;70.79;100178.78;5035211;28;45556;-74
2023/08/19 02:05:05;;;;;;;;;20.00;17.33;;;;;26.08;69.86;100183.97;5027952;28;46047;-73
2023/08/19 02:07:31;;;;;;;;;18.00;16.00;;;;;26.06;70.60;100195.66;5036824;28;45608;-73
2023/08/19 02:09:57;;;;;;;;;17.33;16.67;;;;;25.94;70.63;100191.66;5036419;28;45435;-74
2023/08/19 02:12:22;;;;;;;;;18.00;16.00;;;;;26.02;70.27;100202.94;5036332;28;45392;-73
2023/08/19 02:14:48;;;;;;;;;18.33;16.67;;;;;26.03;70.17;100201.16;5036068;28;45957;-73
2023/08/19 02:17:14;;;;;;;;;16.67;16.67;;;;;26.02;69.67;100189.56;5036730;28;45416;-73
2023/08/19 02:19:39;;;;;;;;;16.67;16.00;;;;;26.06;69.75;100217.09;5036301;28;45620;-73
2023/08/19 02:22:06;;;;;;;;;19.00;18.33;;;;;26.05;69.81;100218.03;5036477;28;45212;-73
2023/08/19 02:24:31;;;;;;;;;17.33;17.33;;;;;25.93;69.28;100206.88;5034959;28;48006;-75
2023/08/19 02:26:57;;;;;;;;;18.33;16.00;;;;;25.95;69.61;100226.41;5035556;28;45445;-74
2023/08/19 02:29:22;;;;;;;;;16.33;16.33;;;;;25.87;69.30;100209.75;5036653;28;45454;-73
2023/08/19 02:31:48;;;;;;;;;17.00;15.67;;;;;25.90;69.95;100219.44;5036002;28;45495;-74
2023/08/19 02:34:14;;;;;;;;;18.00;16.67;;;;;25.88;69.90;100229.34;5036203;28;45423;-73
2023/08/19 02:36:39;;;;;;;;;17.00;17.00;;;;;25.76;70.11;100217.31;5035517;28;45450;-74
2023/08/19 02:39:05;;;;;;;;;17.00;16.67;;;;;25.82;69.95;100222.41;5036466;28;45481;-75
2023/08/19 02:41:31;;;;;;;;;20.33;19.67;;;;;25.79;70.11;100219.88;5036497;28;45367;-74
2023/08/19 02:43:56;;;;;;;;;17.67;16.67;;;;;25.72;69.95;100213.00;5035668;28;45894;-73
2023/08/19 02:46:22;;;;;;;;;17.67;17.33;;;;;25.62;69.96;100223.19;5036313;28;45450;-74
2023/08/19 02:48:48;;;;;;;;;20.33;15.67;;;;;25.56;70.29;100224.28;5034336;28;45523;-73
2023/08/19 02:51:13;;;;;;;;;17.33;15.33;;;;;25.58;70.16;100227.75;5036016;28;45510;-73
2023/08/19 02:53:39;;;;;;;;;15.33;13.67;;;;;25.58;69.94;100230.44;5035626;28;45329;-74
2023/08/19 02:56:06;;;;;;;;;16.67;16.33;;;;;25.49;70.51;100222.78;5036349;28;45547;-73
2023/08/19 02:58:32;;;;;;;;;17.33;16.00;;;;;25.53;70.37;100237.78;5035845;28;45473;-74
2023/08/19 03:00:58;;;;;;;;;17.00;17.00;;;;;25.54;70.17;100239.50;5033263;28;45499;-75
2023/08/19 03:03:23;;;;;;;;;17.00;16.00;;;;;25.56;69.92;100248.34;5036036;28;45432;-76
2023/08/19 03:05:49;;;;;;;;;15.67;15.00;;;;;25.40;70.30;100223.09;5034906;28;45394;-75
2023/08/19 03:08:15;;;;;;;;;15.33;13.67;;;;;25.45;69.62;100239.84;5033235;28;45543;-73
2023/08/19 03:10:41;;;;;;;;;17.00;15.33;;;;;25.49;69.76;100246.84;5035897;28;45657;-73
2023/08/19 03:13:08;;;;;;;;;18.00;17.00;;;;;25.45;69.87;100239.00;5039941;28;45318;-74
2023/08/19 03:15:36;;;;;;;;;16.67;16.33;;;;;25.45;69.55;100253.22;5038621;28;45359;-73
2023/08/19 03:18:01;;;;;;;;;19.00;17.67;;;;;25.37;69.91;100240.13;5035657;28;45503;-73
2023/08/19 03:20:27;;;;;;;;;17.00;16.00;;;;;25.35;69.61;100236.66;5038865;28;45876;-74
2023/08/19 03:22:53;;;;;;;;;16.00;15.67;;;;;25.35;70.00;100250.00;5038753;28;46197;-74
2023/08/19 03:25:19;;;;;;;;;19.33;17.33;;;;;25.34;70.23;100255.41;5038457;28;45234;-73
2023/08/19 03:27:45;;;;;;;;;16.33;15.33;;;;;25.23;69.79;100244.22;5029869;28;45511;-74
2023/08/19 03:30:11;;;;;;;;;16.33;15.33;;;;;25.26;70.30;100252.13;5031833;28;45513;-74
2023/08/19 03:32:37;;;;;;;;;17.33;15.33;;;;;25.27;70.11;100256.53;5037228;28;47461;-73
2023/08/19 03:35:02;;;;;;;;;18.33;17.67;;;;;25.25;70.03;100263.75;5034871;28;45568;-73
2023/08/19 03:37:28;;;;;;;;;21.00;18.00;;;;;25.13;70.10;100262.38;5032627;28;45496;-73
2023/08/19 03:39:54;;;;;;;;;16.33;16.00;;;;;25.10;70.02;100254.44;5038858;28;45632;-74
2023/08/19 03:42:20;;;;;;;;;14.00;14.00;;;;;25.17;69.84;100266.69;5038554;28;46073;-73
2023/08/19 03:44:45;;;;;;;;;14.00;13.33;;;;;25.14;69.63;100264.09;5038523;28;45487;-73
2023/08/19 03:47:12;;;;;;;;;15.00;14.33;;;;;25.12;69.41;100274.84;5039180;28;46317;-73
2023/08/19 03:49:38;;;;;;;;;16.67;16.00;;;;;25.11;69.52;100269.53;5039028;28;45524;-74
2023/08/19 03:52:08;;;;;;;;;18.67;15.67;;;;;24.77;69.53;100234.19;5036732;28;46153;-73
2023/08/19 03:54:35;;;;;;;;;15.67;15.33;;;;;24.96;69.39;100266.47;5037880;28;45369;-74
2023/08/19 03:57:01;;;;;;;;;14.33;14.33;;;;;24.90;69.87;100271.16;5036944;28;45455;-74
2023/08/19 03:59:27;;;;;;;;;15.33;14.67;;;;;24.69;70.01;100252.25;5039037;28;45356;-73
2023/08/19 04:01:53;;;;;;;;;15.33;15.33;;;;;24.79;69.97;100276.88;5038084;28;45687;-74
2023/08/19 04:04:19;;;;;;;;;15.00;13.67;;;;;24.72;70.17;100269.97;5038079;28;45473;-73
2023/08/19 04:06:45;;;;;;;;;15.33;14.67;;;;;24.66;70.15;100263.03;5038113;28;45565;-73
2023/08/19 04:09:10;;;;;;;;;13.00;13.00;;;;;24.72;69.56;100268.16;5034161;28;45551;-73
2023/08/19 04:11:39;;;;;;;;;16.33;15.33;;;;;24.70;69.62;100263.81;5037769;28;46085;-73
2023/08/19 04:14:11;;;;;;;;;14.00;13.00;;;;;24.70;70.23;100278.03;5038496;28;45525;-73
2023/08/19 04:16:39;;;;;;;;;15.33;14.67;;;;;24.69;69.96;100286.09;5038114;28;45416;-74
2023/08/19 04:19:04;;;;;;;;;16.33;15.67;;;;;24.58;70.67;100283.78;5028023;28;45471;-73
2023/08/19 04:21:30;;;;;;;;;14.33;13.67;;;;;24.56;70.40;100296.31;5020315;28;45454;-73
2023/08/19 04:23:56;;;;;;;;;15.00;13.67;;;;;24.63;70.07;100295.19;5037338;28;45509;-73
2023/08/19 04:26:21;;;;;;;;;15.67;14.67;;;;;24.60;70.49;100292.63;5038805;28;45461;-75
2023/08/19 04:28:47;;;;;;;;;14.33;13.00;;;;;24.54;70.38;100287.47;5038026;28;45599;-73
2023/08/19 04:31:13;;;;;;;;;14.00;14.00;;;;;24.52;70.33;100302.66;5039025;28;45472;-74
2023/08/19 04:33:38;;;;;;;;;14.00;13.00;;;;;24.49;70.89;100308.06;5038204;28;45407;-75
2023/08/19 04:36:04;;;;;;;;;15.33;15.33;;;;;24.34;70.94;100304.09;5037979;28;45551;-74
2023/08/19 04:38:31;;;;;;;;;17.67;15.67;;;;;24.38;71.91;100317.28;5038491;28;45501;-74
2023/08/19 04:40:59;;;;;;;;;15.33;14.33;;;;;24.35;71.19;100322.72;5038232;28;45377;-73
2023/08/19 04:43:27;;;;;;;;;17.33;16.33;;;;;24.38;71.29;100319.94;5038468;28;45229;-74
2023/08/19 04:45:54;;;;;;;;;16.33;14.67;;;;;24.35;71.17;100319.16;5038548;28;45477;-73
2023/08/19 04:48:20;;;;;;;;;15.00;14.67;;;;;24.35;71.23;100319.16;5038524;28;45332;-73
2023/08/19 04:50:46;;;;;;;;;16.33;15.00;;;;;24.40;71.46;100317.25;5038364;28;46126;-73
2023/08/19 04:53:12;;;;;;;;;17.33;14.67;;;;;24.37;71.19;100315.56;5038742;28;45384;-73
2023/08/19 04:55:37;;;;;;;;;14.67;13.67;;;;;24.44;70.80;100334.06;5038517;28;45426;-73
2023/08/19 04:58:03;;;;;;;;;14.67;14.67;;;;;24.44;70.52;100334.06;5038410;28;45248;-73
2023/08/19 05:00:28;;;;;;;;;14.00;13.67;;;;;24.39;70.87;100345.75;5037660;28;46053;-73
2023/08/19 05:02:54;;;;;;;;;16.33;15.33;;;;;24.36;70.79;100345.81;5038253;28;45216;-73
2023/08/19 05:05:20;;;;;;;;;17.00;16.33;;;;;24.27;70.96;100330.06;5036921;28;45371;-73
2023/08/19 05:07:45;;;;;;;;;13.67;13.33;;;;;24.29;70.30;100349.63;5039045;28;45967;-73
2023/08/19 05:10:11;;;;;;;;;15.67;14.67;;;;;24.38;70.34;100351.13;5038728;28;45238;-73
2023/08/19 05:12:37;;;;;;;;;17.67;16.67;;;;;24.41;70.40;100359.91;5038299;28;45331;-72
2023/08/19 05:15:03;;;;;;;;;17.67;15.67;;;;;24.35;70.10;100367.22;5038271;28;45913;-73
2023/08/19 05:17:29;;;;;;;;;16.00;14.33;;;;;24.31;70.15;100365.56;5036515;28;45720;-73
2023/08/19 05:19:57;;;;;;;;;14.67;14.00;;;;;24.26;70.68;100365.72;5037585;28;47620;-73
2023/08/19 05:22:23;;;;;;;;;17.67;16.67;;;;;24.22;70.75;100372.94;5036038;28;45535;-73
2023/08/19 05:24:49;;;;;;;;;15.67;15.67;;;;;24.18;70.96;100367.72;5036705;28;45466;-73
2023/08/19 05:27:15;;;;;;;;;17.33;16.00;;;;;24.29;70.66;100372.75;5038351;28;45500;-73
2023/08/19 05:29:41;;;;;;;;;16.67;14.67;;;;;24.41;70.48;100389.28;5035005;28;45480;-73
2023/08/19 05:32:06;;;;;;;;;14.67;14.00;;;;;24.37;70.07;100390.31;5036683;28;45215;-73
2023/08/19 05:34:33;;;;;;;;;16.00;16.00;;;;;24.35;69.72;100393.91;5037989;28;45233;-73
2023/08/19 05:36:59;;;;;;;;;14.67;13.67;;;;;24.31;69.48;100393.16;5037350;28;45436;-73
2023/08/19 05:39:25;;;;;;;;;15.00;14.33;;;;;24.32;70.01;100397.56;5036414;28;45536;-73
2023/08/19 05:41:51;;;;;;;;;16.33;16.00;;;;;24.27;69.77;100372.78;5037002;28;45323;-73
2023/08/19 05:44:16;;;;;;;;;17.33;16.67;;;;;24.36;69.40;100374.31;5038073;28;45473;-73
2023/08/19 05:46:42;;;;;;;;;14.67;14.33;;;;;24.46;69.58;100382.94;5036615;28;45547;-73
2023/08/19 05:49:08;;;;;;;;;15.33;15.33;;;;;24.49;69.24;100389.06;5036426;28;46867;-73
2023/08/19 05:51:34;;;;;;;;;17.33;16.00;;;;;24.44;69.18;100384.78;5036409;28;45339;-73
2023/08/19 05:54:01;;;;;;;;;19.00;16.33;;;;;24.37;69.20;100389.41;5035992;28;45339;-73
2023/08/19 05:56:27;;;;;;;;;15.33;14.33;;;;;24.32;68.80;100394.88;5036731;28;45546;-73
2023/08/19 05:58:53;;;;;;;;;12.33;11.33;;;;;24.40;68.65;100392.00;5036455;28;45985;-73
2023/08/19 06:01:18;;;;;;;;;15.33;13.67;;;;;24.45;68.68;100391.84;5035543;28;45717;-73
2023/08/19 06:03:44;;;;;;;;;13.33;12.00;;;;;24.46;68.39;100391.81;5043160;28;45541;-72
2023/08/19 06:06:10;;;;;;;;;16.33;14.33;;;;;24.47;68.42;100396.25;5038685;28;45468;-72
2023/08/19 06:08:36;;;;;;;;;15.67;13.67;;;;;24.52;68.60;100397.00;5029558;28;45485;-82
2023/08/19 06:11:06;;;;;;;;;14.67;14.00;;;;;24.47;68.54;100401.59;5024874;28;45419;-74
2023/08/19 06:13:36;;;;;;;;;13.67;12.00;;;;;24.49;68.34;100389.06;5032056;28;45372;-73
2023/08/19 06:16:03;;;;;;;;;14.00;12.33;;;;;24.52;68.08;100382.78;5026825;28;45700;-79
2023/08/19 06:18:30;;;;;;;;;14.33;13.00;;;;;24.47;68.44;100390.00;5025460;28;45469;-74
2023/08/19 06:20:56;;;;;;;;;13.33;13.33;;;;;24.45;69.10;100410.53;5027473;28;45335;-73
2023/08/19 06:23:23;;;;;;;;;17.33;14.67;;;;;25.92;66.26;100408.50;5025762;28;45542;-73
2023/08/19 06:25:51;;;;;;;;;14.33;13.00;;;;;28.29;58.50;100406.13;5026393;28;45425;-73
2023/08/19 06:28:18;;;;;;;;;14.00;12.33;;;;;30.08;56.27;100412.59;5026211;28;45467;-74
2023/08/19 06:30:45;;;;;;;;;14.00;14.00;;;;;31.65;52.56;100419.09;5021491;28;45441;-73
2023/08/19 06:33:13;;;;;;;;;14.00;14.00;;;;;32.93;48.44;100421.97;5035951;28;45505;-72
2023/08/19 06:35:38;;;;;;;;;14.67;13.67;;;;;33.74;45.57;100424.69;5036218;28;45613;-72
2023/08/19 06:38:15;;;;;;;;;12.33;12.33;;;;;34.58;44.04;100417.88;5031401;28;45477;-74
2023/08/19 06:40:54;;;;;;;;;12.00;12.00;;;;;35.15;42.57;100429.13;5043711;28;45511;-72
2023/08/19 06:43:22;;;;;;;;;12.00;12.00;;;;;35.53;41.00;100436.25;5034912;28;45545;-76
2023/08/19 06:45:48;;;;;;;;;14.33;13.00;;;;;36.33;40.90;100440.91;5032787;28;45599;-72
2023/08/19 06:48:15;;;;;;;;;13.67;12.67;;;;;37.25;39.35;100443.44;5042831;28;45426;-72
2023/08/19 06:50:41;;;;;;;;;14.00;13.00;;;;;37.99;38.77;100432.59;5034164;28;45469;-71
2023/08/19 06:53:10;;;;;;;;;10.33;10.33;;;;;38.54;36.48;100438.69;5031935;28;45466;-71
2023/08/19 06:55:41;;;;;;;;;10.67;10.67;;;;;38.92;35.98;100438.94;5031028;28;45363;-72
2023/08/19 06:58:13;;;;;;;;;14.00;14.00;;;;;39.57;34.23;100440.22;5032108;28;45879;-71
2023/08/19 07:00:41;;;;;;;;;11.67;11.00;;;;;40.04;33.53;100439.44;5045714;28;45425;-72
2023/08/19 07:03:08;;;;;;;;;10.00;9.33;;;;;40.77;32.73;100446.13;5048051;28;45518;-73
2023/08/19 07:05:36;;;;;;;;;12.00;11.33;;;;;41.19;32.52;100454.69;5044056;28;45306;-80
2023/08/19 07:08:06;;;;;;;;;14.00;13.00;;;;;41.74;31.32;100464.63;5047510;28;46108;-72
2023/08/19 07:10:32;;;;;;;;;13.00;11.33;;;;;42.33;30.79;100456.69;5050998;28;45385;-78
2023/08/19 07:12:58;;;;;;;;;9.33;9.33;;;;;42.57;31.51;100452.38;5042978;28;45596;-72
2023/08/19 07:15:24;;;;;;;;;10.33;9.00;;;;;42.95;29.40;100455.63;5041402;28;45545;-73
2023/08/19 07:17:58;;;;;;;;;12.00;12.00;;;;;43.27;29.04;100455.72;5047707;28;47012;-73
2023/08/19 07:20:24;;;;;;;;;10.00;9.67;;;;;43.59;28.60;100459.53;5048796;28;45649;-72
2023/08/19 07:22:52;;;;;;;;;11.33;11.00;;;;;43.72;27.83;100445.28;5037350;28;45486;-72
2023/08/19 07:25:19;;;;;;;;;11.00;9.67;;;;;44.23;27.30;100467.06;5042491;28;45627;-73
2023/08/19 07:27:46;;;;;;;;;9.33;9.33;;;;;44.59;27.04;100462.03;5044018;28;45503;-76
2023/08/19 07:30:12;;;;;;;;;10.33;10.33;;;;;44.86;27.10;100463.44;5050984;28;45423;-73
2023/08/19 07:32:39;;;;;;;;;9.33;9.33;;;;;45.46;25.70;100469.31;5041407;28;45771;-73
2023/08/19 07:35:05;;;;;;;;;12.67;11.67;;;;;45.73;25.53;100467.06;5041354;28;45198;-72
2023/08/19 07:37:31;;;;;;;;;9.33;9.33;;;;;45.88;25.90;100472.59;5038919;28;47006;-73
2023/08/19 07:39:58;;;;;;;;;12.67;12.67;;;;;46.17;25.86;100469.06;5050918;28;45526;-74
2023/08/19 07:42:24;;;;;;;;;13.33;13.33;;;;;46.72;25.65;100467.75;5041218;28;45756;-73
2023/08/19 07:44:50;;;;;;;;;18.00;17.00;;;;;47.29;25.89;100476.34;5044154;28;45466;-73
2023/08/19 07:47:15;;;;;;;;;18.33;17.00;;;;;47.69;23.76;100482.28;5042670;28;45449;-73
2023/08/19 07:49:41;;;;;;;;;15.00;15.00;;;;;47.63;24.23;100474.78;5041267;28;45679;-72
2023/08/19 07:52:06;;;;;;;;;13.33;13.33;;;;;47.88;23.35;100461.38;5041320;28;45390;-73
2023/08/19 07:54:32;;;;;;;;;14.33;14.33;;;;;47.82;23.94;100465.78;5038692;28;45443;-73
2023/08/19 07:56:58;;;;;;;;;12.00;11.00;;;;;47.91;24.66;100456.25;5036212;28;46143;-83
2023/08/19 07:59:25;;;;;;;;;12.33;12.00;;;;;48.10;23.31;100464.97;5037412;28;45637;-70
2023/08/19 08:01:52;;;;;;;;;11.67;11.67;;;;;47.78;23.20;100458.94;5038702;28;45430;-70
2023/08/19 08:04:17;;;;;;;;;11.00;10.00;;;;;47.86;23.20;100461.56;5037549;28;45399;-73
2023/08/19 08:06:45;;;;;;;;;8.67;8.67;;;;;48.07;23.43;100448.75;5036844;28;46237;-73
2023/08/19 08:09:10;;;;;;;;;9.67;9.67;;;;;48.65;22.96;100452.13;5038004;28;45547;-73
2023/08/19 08:11:36;;;;;;;;;11.33;11.33;;;;;48.92;22.65;100447.50;5036793;28;45321;-73
2023/08/19 08:14:02;;;;;;;;;9.00;8.33;;;;;48.90;23.33;100435.78;5037554;28;45411;-73
2023/08/19 08:16:28;;;;;;;;;12.00;12.00;;;;;49.52;23.43;100436.56;5037253;28;45960;-73
2023/08/19 08:18:53;;;;;;;;;9.00;9.00;;;;;49.68;22.05;100438.06;5038882;28;45704;-73
2023/08/19 08:21:20;;;;;;;;;11.33;11.33;;;;;49.82;21.87;100433.38;5046756;28;45463;-73
2023/08/19 08:23:47;;;;;;;;;18.00;18.00;;;;;50.00;22.89;100431.88;5037246;28;45525;-74
2023/08/19 08:26:13;;;;;;;;;10.33;10.00;;;;;50.31;22.40;100432.03;5036410;28;46066;-73
2023/08/19 08:28:38;;;;;;;;;9.00;8.33;;;;;49.98;22.67;100431.22;5036823;28;45534;-73
2023/08/19 08:31:04;;;;;;;;;11.67;11.67;;;;;49.63;22.27;100429.53;5032882;28;45534;-76
2023/08/19 08:33:30;;;;;;;;;9.67;9.33;;;;;50.06;22.91;100434.63;5029266;28;45337;-76
2023/08/19 08:35:55;;;;;;;;;9.33;8.33;;;;;50.34;22.50;100428.81;5037103;28;45978;-73
2023/08/19 08:38:21;;;;;;;;;9.33;9.00;;;;;50.53;19.80;100429.84;5036221;28;45501;-73
2023/08/19 08:40:47;;;;;;;;;5.67;5.67;;;;;50.34;21.03;100431.59;5036648;28;45599;-72
2023/08/19 08:43:15;;;;;;;;;6.33;6.33;;;;;50.23;20.23;100431.44;5034632;28;45792;-73
2023/08/19 08:45:41;;;;;;;;;7.33;7.33;;;;;50.44;19.70;100430.28;5036308;28;46255;-73
2023/08/19 08:48:09;;;;;;;;;8.00;8.00;;;;;50.47;20.12;100421.53;5036179;28;45454;-73
2023/08/19 08:50:34;;;;;;;;;6.67;6.67;;;;;50.57;19.54;100427.47;5037122;28;45498;-73
2023/08/19 08:53:01;;;;;;;;;8.50;8.50;;;;;50.44;19.65;100420.06;5037283;28;45394;-73
2023/08/19 08:55:26;;;;;;;;;4.00;3.67;;;;;49.85;18.75;100421.84;5037239;28;45453;-73
2023/08/19 08:57:52;;;;;;;;;4.33;4.33;;;;;48.62;20.36;100427.53;5035502;28;45296;-73
2023/08/19 09:00:18;;;;;;;;;7.00;6.67;;;;;48.36;20.52;100439.38;5036999;28;46208;-73
2023/08/19 09:02:45;;;;;;;;;5.67;5.67;;;;;47.94;20.74;100425.44;5037086;28;45779;-73
2023/08/19 09:05:12;;;;;;;;;14.00;14.00;;;;;47.65;20.83;100429.22;5034157;28;46266;-73
2023/08/19 09:07:40;;;;;;;;;4.67;4.00;;;;;47.02;21.64;100420.72;5036171;28;45487;-73
2023/08/19 09:10:14;;;;;;;;;6.33;6.00;;;;;46.49;21.62;100418.13;5035917;28;45429;-73
2023/08/19 09:12:45;;;;;;;;;4.33;4.33;;;;;46.57;22.72;100423.56;5031152;28;45560;-72
2023/08/19 09:15:12;;;;;;;;;5.33;5.00;;;;;45.89;22.38;100414.47;5035440;28;46393;-72
2023/08/19 09:17:39;;;;;;;;;5.67;5.33;;;;;45.52;23.20;100410.63;5035271;28;45494;-75
2023/08/19 09:20:07;;;;;;;;;5.00;5.00;;;;;45.28;22.42;100389.63;5033843;28;45532;-74
2023/08/19 09:22:33;;;;;;;;;5.67;5.00;;;;;44.98;23.08;100416.19;5035983;28;45295;-74
2023/08/19 09:24:58;;;;;;;;;4.00;4.00;;;;;44.86;23.52;100421.22;5035726;28;47707;-74
2023/08/19 09:27:26;;;;;;;;;6.33;5.67;;;;;44.82;23.76;100417.13;5024189;28;45531;-74
2023/08/19 09:29:52;;;;;;;;;6.00;5.33;;;;;44.80;23.38;100414.53;5033062;28;45485;-75
2023/08/19 09:32:30;;;;;;;;;4.67;4.33;;;;;45.06;22.79;100407.88;5035529;28;45359;-74
2023/08/19 09:35:07;;;;;;;;;4.67;4.67;;;;;45.10;23.49;100409.22;5034270;28;45402;-77
2023/08/19 09:37:35;;;;;;;;;4.00;4.00;;;;;45.33;22.44;100419.44;5020893;28;45592;-73
2023/08/19 09:40:07;;;;;;;;;3.00;3.00;;;;;44.63;23.66;100416.53;5032528;28;45528;-74
2023/08/19 09:42:33;;;;;;;;;5.33;4.33;;;;;44.26;24.22;100423.53;5035170;28;45606;-73
2023/08/19 09:44:59;;;;;;;;;4.33;3.67;;;;;43.75;24.52;100431.19;5035400;28;46073;-75
2023/08/19 09:47:25;;;;;;;;;3.33;3.00;;;;;42.04;25.00;100413.09;5034519;28;45396;-74
2023/08/19 09:49:56;;;;;;;;;3.00;2.67;;;;;40.85;26.56;100410.59;5033787;28;45561;-71
2023/08/19 09:52:21;;;;;;;;;3.00;3.00;;;;;40.09;28.25;100417.97;5032508;28;45431;-71
2023/08/19 09:54:52;;;;;;;;;4.33;3.33;;;;;40.42;28.29;100418.44;5034259;28;45694;-75
2023/08/19 09:57:39;;;;;;;;;4.00;4.00;;;;;40.24;28.43;100415.63;5035291;28;45813;-75
2023/08/19 10:00:07;;;;;;;;;4.67;4.67;;;;;40.23;28.79;100419.38;5032938;28;45549;-72
2023/08/19 10:02:35;;;;;;;;;3.00;3.00;;;;;39.91;27.88;100425.22;5033928;28;45593;-74
2023/08/19 10:05:00;;;;;;;;;4.33;4.00;;;;;38.79;29.14;100415.47;5033973;28;46139;-73
2023/08/19 10:07:32;;;;;;;;;4.00;4.00;;;;;39.03;29.82;100411.53;5033820;28;45791;-74
2023/08/19 10:10:03;;;;;;;;;3.67;3.00;;;;;39.12;29.79;100429.81;5034714;28;45478;-74
2023/08/19 10:12:33;;;;;;;;;5.00;4.00;;;;;39.15;29.99;100421.31;5034991;28;45478;-76
2023/08/19 10:15:00;;;;;;;;;2.00;2.00;;;;;39.34;30.13;100419.59;5033669;28;47817;-73
2023/08/19 10:17:28;;;;;;;;;2.67;2.33;;;;;39.42;29.56;100422.53;5033596;28;45711;-73
2023/08/19 10:20:05;;;;;;;;;5.00;5.00;;;;;39.37;30.40;100425.63;5032415;28;45550;-73
2023/08/19 10:22:34;;;;;;;;;4.00;4.00;;;;;39.75;29.25;100423.03;5034333;28;45461;-73
2023/08/19 10:25:03;;;;;;;;;4.00;4.00;;;;;39.96;29.57;100411.97;5034595;28;45503;-73
2023/08/19 10:27:29;;;;;;;;;3.67;3.33;;;;;39.71;29.63;100425.19;5034574;28;45592;-74
2023/08/19 10:29:58;;;;;;;;;8.00;6.00;;;;;39.52;29.71;100420.63;5034537;28;45474;-72
2023/08/19 10:32:32;;;;;;;;;4.00;4.00;;;;;39.67;29.38;100418.31;5032690;28;46091;-74
2023/08/19 10:35:17;;;;;;;;;7.33;7.33;;;;;39.84;29.77;100407.66;5034067;28;46237;-74
2023/08/19 10:37:45;;;;;;;;;3.67;3.67;;;;;39.89;29.22;100419.91;5031141;28;45369;-74
2023/08/19 10:40:13;;;;;;;;;4.00;3.67;;;;;39.80;29.32;100426.22;5033992;28;45515;-74
2023/08/19 10:42:39;;;;;;;;;4.33;3.67;;;;;40.19;29.07;100414.34;5034930;28;45434;-73
2023/08/19 10:45:15;;;;;;;;;5.33;5.33;;;;;40.29;29.45;100416.03;5033318;28;46006;-74
2023/08/19 10:47:41;;;;;;;;;5.67;5.33;;;;;40.30;29.15;100406.78;5033759;28;45485;-71
2023/08/19 10:50:09;;;;;;;;;4.67;4.67;;;;;40.64;28.84;100406.22;5034091;28;45231;-71
2023/08/19 10:52:39;;;;;;;;;5.67;5.00;;;;;40.42;29.16;100399.28;5034765;28;45538;-71
2023/08/19 10:55:05;;;;;;;;;4.33;4.33;;;;;40.24;30.00;100401.06;5033783;28;45469;-71
2023/08/19 10:57:34;;;;;;;;;3.00;3.00;;;;;39.76;30.33;100409.22;5034792;28;45420;-70
2023/08/19 11:00:00;;;;;;;;;3.67;3.67;;;;;39.40;29.96;100407.25;5034447;28;45713;-71
2023/08/19 11:02:28;;;;;;;;;5.00;3.33;;;;;39.09;30.69;100407.38;5033696;28;45576;-73
2023/08/19 11:04:55;;;;;;;;;2.00;1.33;;;;;38.67;31.09;100400.22;5032821;28;45545;-71
2023/08/19 11:07:21;;;;;;;;;4.33;3.33;;;;;38.85;31.19;100405.84;5034501;28;45443;-71
2023/08/19 11:09:48;;;;;;;;;3.67;3.00;;;;;38.23;31.65;100402.31;5034566;28;45454;-71
2023/08/19 11:12:19;;;;;;;;;4.33;4.00;;;;;37.96;32.74;100397.41;5034432;28;45283;-71
2023/08/19 11:14:50;;;;;;;;;4.67;4.00;;;;;37.89;33.05;100391.63;5034216;28;45407;-71